Het weer levert geen direct gevaar op.    Er zijn geen waarschuwingen afgegeven.

Regen radar Meer informatie rain snow radar


Bezoek onze andere website:

Template documentation
and downloads

And another site

Forum Leuven-template

EUWEATHER.EU

Verwachtingen Meteociel


U vindt ons ook hier:

Het Weer Aktueel

UK Metoffice

European Weather Network

WeatherCloud

Weather Underground

Benelux Weer Netwerk

AWEKAS

WeatherlinkIP

HAMweather, WeatherForYou, PWS Weather

Wetter.com



METAR rapporten vliegvelden

   
EBAW - Antwerp
Gewijzigd: 06-07-2020 18:20
Gedeeltelijk bewolkt  
Gedeeltelijk bewolkt  
   Wind: NW 29.6 km/h
Wind: NW 29.6 km/h
Temperatuur: 18°C
Dauwpunt: 9°C
Vochtigheid: 56%
Barometer: 1020 hPa
Bewolking: Gedeeltelijk bewolkt
Zicht: meer dan 10 km
Bewolking: Gedeeltelijk bewolkt 4500 ft
EBAW 061620Z 31016KT 9999 SCT045 18/09 Q1020 NOSIG
EBLG - Li├Ęge
Gewijzigd: 06-07-2020 18:20
Helder  
Helder  
   Wind: WNW 18.5 km/h
Wind: WNW 18.5 km/h
Temperatuur: 18°C
Dauwpunt: 6°C
Vochtigheid: 46%
Barometer: 1020 hPa
Zicht: meer dan 10 km
Bewolking: Helder
EBLG 061620Z 30010KT 260V340 CAVOK 18/06 Q1020 NOSIG
EBCV - Mons/Bergen
Gewijzigd: 06-07-2020 17:55
Grotendeels bewolkt  
Grotendeels bewolkt  
   Wind: WNW 16.7 km/h
Wind: WNW 16.7 km/h
Temperatuur: 18°C
Dauwpunt: 7°C
Vochtigheid: 49%
Barometer: 1021 hPa
Bewolking: Grotendeels bewolkt
Zicht: meer dan 10 km
Bewolking: Gedeeltelijk bewolkt 5100 ft,
Grotendeels bewolkt 8000 ft
EBCV 061555Z AUTO 30009KT 9999 SCT051/// BKN080/// 18/07 Q1021 BLU
EHBK - Maastricht
Gewijzigd: 06-07-2020 18:25
Gedeeltelijk bewolkt  
Gedeeltelijk bewolkt  
   Wind: WNW 16.7 km/h
Wind: WNW 16.7 km/h
Temperatuur: 18°C
Dauwpunt: 7°C
Vochtigheid: 49%
Barometer: 1019 hPa
Bewolking: Gedeeltelijk bewolkt
Zicht: meer dan 10 km
Bewolking: Gedeeltelijk bewolkt
EHBK 061625Z AUTO 29009KT 230V010 9999 NSC 18/07 Q1019 TEMPO 27015G25KT 6000 SHRA SCT020CB BKN025
ELLX - Luxemburg
Gewijzigd: 06-07-2020 18:20
Licht bewolkt  
Licht bewolkt  
   Wind: WNW 16.7 km/h
Wind: WNW 16.7 km/h
Temperatuur: 18°C
Dauwpunt: 7°C
Vochtigheid: 49%
Barometer: 1020 hPa
Bewolking: Licht bewolkt
Zicht: meer dan 10 km
Bewolking: Licht bewolkt 4000 ft
ELLX 061620Z 29009KT 9999 FEW040 18/07 Q1020 NOSIG
EBOS - Oostende
Gewijzigd: 06-07-2020 18:20
Licht bewolkt  
Licht bewolkt  
   Wind: Westen 25.9 km/h
Wind: Westen 25.9 km/h
Temperatuur: 17°C
Dauwpunt: 9°C
Vochtigheid: 59%
Barometer: 1021 hPa
Bewolking: Licht bewolkt
Zicht: meer dan 10 km
Bewolking: Licht bewolkt 3500 ft
EBOS 061620Z 28014KT 9999 FEW035 17/09 Q1021 NOSIG

Script ontwikkeld door  Saratoga-weather.org Aangepast voor de template door  Weerstation Leuven

Apparatuur in gebruik:

Weerstation
Davis VP2

Weerprogramma
Meteobridge

Weercomputer
Asus WL -330N3G

Webleverancier
Onecom

Davis VP2

Meteobridge

Asus WL -330N3G

Onecom